createdAt,value
2022-10-07T00:00:43.776Z,10.30
2022-10-07T00:03:10.541Z,11.65
2022-10-07T00:05:37.007Z,10.10
2022-10-07T00:08:03.728Z,10.02
2022-10-07T00:10:30.193Z,11.10
2022-10-07T00:12:57.101Z,12.82
2022-10-07T00:15:23.726Z,13.40
2022-10-07T00:17:50.199Z,12.27
2022-10-07T00:20:16.742Z,11.73
2022-10-07T00:22:43.630Z,10.73
2022-10-07T00:25:10.221Z,10.63
2022-10-07T00:27:37.193Z,11.13
2022-10-07T00:30:04.214Z,10.85
2022-10-07T00:32:30.704Z,11.88
2022-10-07T00:34:57.529Z,11.80
2022-10-07T00:37:24.028Z,10.45
2022-10-07T00:39:50.534Z,11.82
2022-10-07T00:42:17.998Z,10.48
2022-10-07T00:44:45.595Z,11.32
2022-10-07T00:47:21.037Z,10.23
2022-10-07T00:49:57.027Z,10.48
2022-10-07T00:52:28.256Z,10.23
2022-10-07T00:54:57.172Z,10.32
2022-10-07T00:57:26.657Z,10.57
2022-10-07T00:59:55.534Z,11.45
2022-10-07T01:02:25.081Z,10.73
2022-10-07T01:04:53.411Z,10.00
2022-10-07T01:07:21.711Z,10.52
2022-10-07T01:09:51.374Z,10.02
2022-10-07T01:12:59.531Z,10.30
2022-10-07T01:15:36.356Z,10.63
2022-10-07T01:18:08.694Z,9.93
2022-10-07T01:20:45.190Z,11.20
2022-10-07T01:23:32.685Z,10.65
2022-10-07T01:26:14.213Z,11.40
2022-10-07T01:28:51.825Z,10.35
2022-10-07T01:31:24.963Z,11.95
2022-10-07T01:33:53.532Z,10.75
2022-10-07T01:36:23.806Z,11.10
2022-10-07T01:39:02.701Z,9.68
2022-10-07T01:41:31.510Z,11.57
2022-10-07T01:44:01.071Z,10.85
2022-10-07T01:46:28.541Z,10.45
2022-10-07T01:48:56.102Z,11.00
2022-10-07T01:51:25.955Z,10.63
2022-10-07T01:54:04.201Z,10.35
2022-10-07T01:57:04.634Z,10.13
2022-10-07T01:59:53.119Z,10.73
2022-10-07T02:02:38.134Z,10.40
2022-10-07T02:05:26.404Z,9.52
2022-10-07T02:07:55.912Z,10.38
2022-10-07T02:10:40.047Z,10.80
2022-10-07T02:13:17.772Z,10.27
2022-10-07T02:16:18.879Z,10.40
2022-10-07T02:18:50.132Z,10.70
2022-10-07T02:21:21.163Z,11.25
2022-10-07T02:23:49.388Z,8.90
2022-10-07T02:26:21.087Z,10.02
2022-10-07T02:28:52.255Z,10.95
2022-10-07T02:31:23.864Z,9.80
2022-10-07T02:33:54.003Z,9.40
2022-10-07T02:36:35.931Z,10.32
2022-10-07T02:39:03.694Z,9.13
2022-10-07T02:41:51.089Z,9.07
2022-10-07T02:44:29.026Z,9.10
2022-10-07T02:47:04.294Z,9.63
2022-10-07T02:49:33.796Z,9.85
2022-10-07T02:52:05.482Z,9.77
2022-10-07T02:54:42.695Z,10.23
2022-10-07T02:57:12.240Z,10.38
2022-10-07T02:59:40.442Z,10.00
2022-10-07T03:02:12.254Z,9.95
2022-10-07T03:04:38.888Z,9.55
2022-10-07T03:07:05.452Z,10.93
2022-10-07T03:09:32.165Z,9.98
2022-10-07T03:11:58.662Z,9.77
2022-10-07T03:14:25.314Z,9.90
2022-10-07T03:16:52.785Z,9.60
2022-10-07T03:19:19.472Z,9.38
2022-10-07T03:21:46.037Z,9.98
2022-10-07T03:24:12.690Z,10.20
2022-10-07T03:26:39.750Z,10.10
2022-10-07T03:29:08.293Z,9.48
2022-10-07T03:31:35.338Z,10.25
2022-10-07T03:34:01.917Z,10.02
2022-10-07T03:36:28.792Z,10.40
2022-10-07T03:38:55.965Z,10.68
2022-10-07T03:41:22.528Z,10.45
2022-10-07T03:43:49.028Z,9.90
2022-10-07T03:46:16.738Z,10.85
2022-10-07T03:48:43.274Z,10.70
2022-10-07T03:51:09.816Z,10.30
2022-10-07T03:53:38.891Z,10.35
2022-10-07T03:56:05.567Z,9.32
2022-10-07T03:58:32.082Z,10.45
2022-10-07T04:01:10.272Z,10.23
2022-10-07T04:03:37.324Z,11.32
2022-10-07T04:06:03.995Z,10.85
2022-10-07T04:08:32.880Z,11.82
2022-10-07T04:11:00.719Z,10.85
2022-10-07T04:13:27.756Z,12.18
2022-10-07T04:15:54.890Z,10.68
2022-10-07T04:18:22.036Z,11.05
2022-10-07T04:20:48.680Z,11.50
2022-10-07T04:23:16.463Z,10.70
2022-10-07T04:25:44.458Z,12.40
2022-10-07T04:28:24.249Z,11.23
2022-10-07T04:30:53.988Z,10.45
2022-10-07T04:33:23.922Z,11.10
2022-10-07T04:35:51.346Z,10.93
2022-10-07T04:38:18.857Z,10.65
2022-10-07T04:40:48.124Z,10.20
2022-10-07T04:43:26.962Z,11.23
2022-10-07T04:46:00.046Z,10.98
2022-10-07T04:48:27.165Z,10.10
2022-10-07T04:50:53.771Z,11.13
2022-10-07T04:53:21.047Z,10.07
2022-10-07T04:55:51.758Z,10.48
2022-10-07T04:58:19.210Z,11.05
2022-10-07T05:00:51.912Z,10.02
2022-10-07T05:03:20.493Z,10.32
2022-10-07T05:05:49.968Z,10.35
2022-10-07T05:08:18.171Z,11.32
2022-10-07T05:10:45.004Z,12.10
2022-10-07T05:13:14.356Z,10.40
2022-10-07T05:15:57.454Z,10.32
2022-10-07T05:18:26.419Z,10.43
2022-10-07T05:20:53.876Z,10.98
2022-10-07T05:23:28.044Z,11.95
2022-10-07T05:26:04.579Z,12.02
2022-10-07T05:28:31.287Z,11.65
2022-10-07T05:31:09.269Z,11.98
2022-10-07T05:33:35.898Z,11.38
2022-10-07T05:36:03.051Z,10.95
2022-10-07T05:38:29.700Z,11.00
2022-10-07T05:41:00.652Z,10.70
2022-10-07T05:43:28.966Z,10.25
2022-10-07T05:46:03.913Z,9.93
2022-10-07T05:48:36.610Z,10.85
2022-10-07T05:51:06.174Z,9.85
2022-10-07T05:53:32.720Z,10.80
2022-10-07T05:55:59.221Z,9.85
2022-10-07T05:58:25.750Z,12.52
2022-10-07T06:00:54.542Z,11.82
2022-10-07T06:03:22.300Z,11.27
2022-10-07T06:05:50.869Z,12.40
2022-10-07T06:08:19.344Z,12.30
2022-10-07T06:11:05.535Z,14.15
2022-10-07T06:13:32.635Z,14.75
2022-10-07T06:16:08.081Z,13.00
2022-10-07T06:18:38.328Z,13.02
2022-10-07T06:21:05.928Z,13.30
2022-10-07T06:23:33.429Z,14.43
2022-10-07T06:26:01.326Z,12.57
2022-10-07T06:28:32.618Z,12.85
2022-10-07T06:30:59.547Z,13.52
2022-10-07T06:33:26.206Z,12.85
2022-10-07T06:35:59.791Z,11.52
2022-10-07T06:38:28.831Z,11.07
2022-10-07T06:40:59.521Z,10.65
2022-10-07T06:43:26.708Z,11.20
2022-10-07T06:45:56.153Z,10.15
2022-10-07T06:48:23.068Z,10.00
2022-10-07T06:50:53.381Z,10.23
2022-10-07T06:53:20.196Z,10.07
2022-10-07T06:55:47.241Z,8.73
2022-10-07T06:58:13.717Z,9.35
2022-10-07T07:00:40.364Z,7.57
2022-10-07T07:03:06.993Z,8.68
2022-10-07T07:05:41.493Z,9.40
2022-10-07T07:08:11.837Z,9.18
2022-10-07T07:10:40.378Z,9.20
2022-10-07T07:13:07.641Z,9.18
2022-10-07T07:15:34.921Z,8.65
2022-10-07T07:18:02.083Z,8.73
2022-10-07T07:20:35.119Z,9.32
2022-10-07T07:23:02.305Z,9.63
2022-10-07T07:25:29.022Z,9.65
2022-10-07T07:27:57.881Z,8.63
2022-10-07T07:30:24.963Z,9.13
2022-10-07T07:32:51.587Z,8.68
2022-10-07T07:35:18.345Z,8.90
2022-10-07T07:37:46.131Z,8.15
2022-10-07T07:40:13.014Z,9.07
2022-10-07T07:42:39.625Z,8.27
2022-10-07T07:45:06.635Z,8.30
2022-10-07T07:47:35.541Z,8.27
2022-10-07T07:50:03.832Z,7.72
2022-10-07T07:52:30.327Z,7.68
2022-10-07T07:54:58.985Z,7.85
2022-10-07T07:57:27.234Z,8.30
2022-10-07T07:59:55.170Z,8.43
2022-10-07T08:02:23.499Z,7.88
2022-10-07T08:04:50.922Z,8.10
2022-10-07T08:07:17.475Z,7.13
2022-10-07T08:09:44.050Z,7.55
2022-10-07T08:12:11.518Z,7.85
2022-10-07T08:14:38.933Z,7.07
2022-10-07T08:17:05.425Z,7.25
2022-10-07T08:19:32.300Z,8.70
2022-10-07T08:21:59.043Z,7.38
2022-10-07T08:24:25.830Z,8.15
2022-10-07T08:26:53.679Z,8.07
2022-10-07T08:29:21.576Z,8.45
2022-10-07T08:31:48.905Z,7.35
2022-10-07T08:34:15.694Z,7.20
2022-10-07T08:36:47.040Z,6.70
2022-10-07T08:39:14.887Z,7.45
2022-10-07T08:41:49.200Z,6.78
2022-10-07T08:46:54.465Z,7.20
2022-10-07T08:49:30.742Z,6.15
2022-10-07T08:52:19.159Z,5.78
2022-10-07T08:54:45.654Z,9.18
2022-10-07T08:57:44.649Z,6.38
2022-10-07T09:00:15.203Z,7.10
2022-10-07T09:02:56.606Z,6.13
2022-10-07T09:05:28.260Z,5.00
2022-10-07T09:07:59.541Z,5.60
2022-10-07T09:10:37.432Z,5.75
2022-10-07T09:13:12.594Z,7.15
2022-10-07T09:15:49.378Z,5.85
2022-10-07T09:18:28.421Z,5.70
2022-10-07T09:20:56.466Z,6.30
2022-10-07T09:23:34.623Z,5.18
2022-10-07T09:26:01.719Z,5.70
2022-10-07T09:28:30.624Z,4.60
2022-10-07T09:31:00.848Z,4.07
2022-10-07T09:33:29.857Z,4.10
2022-10-07T09:36:06.740Z,4.60
2022-10-07T09:38:44.377Z,3.40
2022-10-07T09:41:16.857Z,3.90
2022-10-07T09:43:56.702Z,3.60
2022-10-07T09:46:39.113Z,3.78
2022-10-07T09:49:06.093Z,3.13
2022-10-07T09:51:35.208Z,4.30
2022-10-07T09:54:04.526Z,3.33
2022-10-07T09:56:36.649Z,3.55
2022-10-07T09:59:24.211Z,3.70
2022-10-07T10:02:14.397Z,2.88
2022-10-07T10:04:53.125Z,3.35
2022-10-07T10:07:36.550Z,3.63
2022-10-07T10:10:18.035Z,2.92
2022-10-07T10:12:52.904Z,3.60
2022-10-07T10:15:30.636Z,2.85
2022-10-07T10:17:58.548Z,2.67
2022-10-07T10:20:44.622Z,3.38
2022-10-07T10:23:34.549Z,3.05
2022-10-07T10:26:28.291Z,3.00
2022-10-07T10:29:08.143Z,2.75
2022-10-07T10:32:00.671Z,2.75
2022-10-07T10:35:01.954Z,2.72
2022-10-07T10:37:42.021Z,2.60
2022-10-07T10:40:14.314Z,2.70
2022-10-07T10:43:17.864Z,2.10
2022-10-07T10:45:49.556Z,2.63
2022-10-07T10:48:32.920Z,2.97
2022-10-07T10:51:39.976Z,2.70
2022-10-07T10:54:31.577Z,2.22
2022-10-07T10:57:17.084Z,2.33
2022-10-07T11:00:01.816Z,2.38
2022-10-07T11:02:37.515Z,2.75
2022-10-07T11:05:22.800Z,2.70
2022-10-07T11:07:55.419Z,2.85
2022-10-07T11:10:24.291Z,2.25
2022-10-07T11:12:59.129Z,2.25
2022-10-07T11:15:34.360Z,1.77
2022-10-07T11:18:23.015Z,1.75
2022-10-07T11:20:50.890Z,2.20
2022-10-07T11:23:32.207Z,1.58
2022-10-07T11:26:13.110Z,1.85
2022-10-07T11:28:43.042Z,1.80
2022-10-07T11:31:12.233Z,1.45
2022-10-07T11:33:49.256Z,1.52
2022-10-07T11:36:32.564Z,1.50
2022-10-07T11:38:59.143Z,1.40
2022-10-07T11:41:33.391Z,1.83
2022-10-07T11:44:16.206Z,1.80
2022-10-07T11:46:45.625Z,1.50
2022-10-07T11:49:24.710Z,1.60
2022-10-07T11:52:08.382Z,2.03
2022-10-07T11:54:53.264Z,1.40
2022-10-07T11:57:24.558Z,1.60
2022-10-07T11:59:58.562Z,1.83
2022-10-07T12:02:28.074Z,1.58
2022-10-07T12:04:59.624Z,1.70
2022-10-07T12:07:32.213Z,1.40
2022-10-07T12:10:04.934Z,1.52
2022-10-07T12:12:47.425Z,1.33
2022-10-07T12:15:29.442Z,1.95
2022-10-07T12:18:18.913Z,1.45
2022-10-07T12:20:52.569Z,2.15
2022-10-07T12:23:19.265Z,1.85
2022-10-07T12:25:50.410Z,1.40
2022-10-07T12:28:26.254Z,1.30
2022-10-07T12:30:55.930Z,1.60
2022-10-07T12:33:33.154Z,1.15
2022-10-07T12:36:22.409Z,1.20
2022-10-07T12:39:01.012Z,1.52
2022-10-07T12:41:38.840Z,1.40
2022-10-07T12:44:25.045Z,1.55
2022-10-07T12:46:53.191Z,1.50
2022-10-07T12:49:31.688Z,1.25
2022-10-07T12:52:04.528Z,1.70
2022-10-07T12:54:37.636Z,1.73
2022-10-07T12:57:12.065Z,1.60
2022-10-07T13:00:05.647Z,1.90
2022-10-07T13:03:09.653Z,1.83
2022-10-07T13:05:54.991Z,1.40
2022-10-07T13:08:30.607Z,1.50
2022-10-07T13:11:15.931Z,1.30
2022-10-07T13:13:53.781Z,2.03
2022-10-07T13:16:23.822Z,1.75
2022-10-07T13:19:15.458Z,1.48
2022-10-07T13:21:51.083Z,1.48
2022-10-07T13:24:24.432Z,1.48
2022-10-07T13:26:52.254Z,1.67
2022-10-07T13:29:26.190Z,1.40
2022-10-07T13:32:32.157Z,1.38
2022-10-07T13:35:01.288Z,1.45
2022-10-07T13:37:35.370Z,2.00
2022-10-07T13:42:56.725Z,1.55
2022-10-07T13:45:23.602Z,1.63
2022-10-07T13:47:50.413Z,1.25
2022-10-07T13:50:20.951Z,2.00
2022-10-07T13:52:49.751Z,1.58
2022-10-07T13:55:35.910Z,1.25
2022-10-07T13:58:05.426Z,1.20
2022-10-07T14:00:33.962Z,1.77
2022-10-07T14:03:01.913Z,1.75
2022-10-07T14:05:31.423Z,1.15
2022-10-07T14:08:16.226Z,1.40
2022-10-07T14:10:56.296Z,1.40
2022-10-07T14:13:22.979Z,2.08
2022-10-07T14:15:55.860Z,1.95
2022-10-07T14:18:23.387Z,2.40
2022-10-07T14:20:55.293Z,1.58
2022-10-07T14:23:28.318Z,1.58
2022-10-07T14:25:57.746Z,2.28
2022-10-07T14:28:24.263Z,1.65
2022-10-07T14:31:27.911Z,2.13
2022-10-07T14:34:35.713Z,2.45
2022-10-07T14:37:08.100Z,2.38
2022-10-07T14:39:38.609Z,3.22
2022-10-07T14:42:10.814Z,2.90
2022-10-07T14:44:37.604Z,1.88
2022-10-07T14:47:06.078Z,3.55
2022-10-07T14:49:33.029Z,2.50
2022-10-07T14:52:00.684Z,1.77
2022-10-07T14:54:27.509Z,1.70
2022-10-07T14:56:53.999Z,2.10
2022-10-07T14:59:20.785Z,1.67
2022-10-07T15:01:48.026Z,2.17
2022-10-07T15:04:15.910Z,1.50
2022-10-07T15:06:45.379Z,2.63
2022-10-07T15:09:16.509Z,2.58
2022-10-07T15:11:44.480Z,2.40
2022-10-07T15:14:12.172Z,2.28
2022-10-07T15:16:39.298Z,2.15
2022-10-07T15:19:05.912Z,1.90
2022-10-07T15:21:32.456Z,1.63
2022-10-07T15:24:01.705Z,1.27
2022-10-07T15:26:28.657Z,2.13
2022-10-07T15:28:57.466Z,1.95
2022-10-07T15:31:27.386Z,1.73
2022-10-07T15:33:57.227Z,1.40
2022-10-07T15:36:29.016Z,1.55
2022-10-07T15:38:56.127Z,1.52
2022-10-07T15:41:39.898Z,1.30
2022-10-07T15:44:11.981Z,1.63
2022-10-07T15:46:38.566Z,1.40
2022-10-07T15:49:05.663Z,1.38
2022-10-07T15:51:32.206Z,1.65
2022-10-07T15:53:59.223Z,1.73
2022-10-07T15:56:25.725Z,1.92
2022-10-07T15:58:53.179Z,1.95
2022-10-07T16:01:20.837Z,2.05
2022-10-07T16:03:49.508Z,1.83
2022-10-07T16:06:21.809Z,1.55
2022-10-07T16:08:49.938Z,1.52
2022-10-07T16:11:17.755Z,1.77
2022-10-07T16:13:47.300Z,1.67
2022-10-07T16:16:17.540Z,1.67
2022-10-07T16:18:46.132Z,1.50
2022-10-07T16:21:15.194Z,1.63
2022-10-07T16:23:45.815Z,1.75
2022-10-07T16:26:17.990Z,1.90
2022-10-07T16:29:05.032Z,2.45
2022-10-07T16:31:33.160Z,1.60
2022-10-07T16:33:59.784Z,1.65
2022-10-07T16:36:27.008Z,1.23
2022-10-07T16:38:54.338Z,2.17
2022-10-07T16:41:21.444Z,1.75
2022-10-07T16:43:48.103Z,2.30
2022-10-07T16:46:20.730Z,3.30
2022-10-07T16:48:49.580Z,2.53
2022-10-07T16:51:21.983Z,2.92
2022-10-07T16:53:50.659Z,2.35
2022-10-07T16:56:19.763Z,2.47
2022-10-07T16:58:47.054Z,2.42
2022-10-07T17:01:17.239Z,2.17
2022-10-07T17:03:46.907Z,2.05
2022-10-07T17:06:15.027Z,2.35
2022-10-07T17:08:46.269Z,1.70
2022-10-07T17:11:29.807Z,1.80
2022-10-07T17:13:57.846Z,2.08
2022-10-07T17:16:25.824Z,2.50
2022-10-07T17:18:52.621Z,1.98
2022-10-07T17:21:20.020Z,1.40
2022-10-07T17:23:47.809Z,1.98
2022-10-07T17:26:18.052Z,1.55
2022-10-07T17:28:44.874Z,2.20
2022-10-07T17:31:13.453Z,2.10
2022-10-07T17:33:42.357Z,1.92
2022-10-07T17:36:10.675Z,1.48
2022-10-07T17:38:41.140Z,1.58
2022-10-07T17:41:15.844Z,2.13
2022-10-07T17:43:42.490Z,1.70
2022-10-07T17:46:12.912Z,2.47
2022-10-07T17:48:48.218Z,1.70
2022-10-07T17:51:16.515Z,1.92
2022-10-07T17:53:43.324Z,1.85
2022-10-07T17:56:11.936Z,2.35
2022-10-07T17:58:40.327Z,2.20
2022-10-07T18:01:16.054Z,1.90
2022-10-07T18:03:43.521Z,2.20
2022-10-07T18:06:11.558Z,2.03
2022-10-07T18:08:41.721Z,1.70
2022-10-07T18:11:09.275Z,2.45
2022-10-07T18:13:54.545Z,2.08
2022-10-07T18:16:22.094Z,2.00
2022-10-07T18:18:54.886Z,2.25
2022-10-07T18:21:22.517Z,2.13
2022-10-07T18:23:53.009Z,2.30
2022-10-07T18:26:19.512Z,2.53
2022-10-07T18:28:46.803Z,2.47
2022-10-07T18:31:16.163Z,2.22
2022-10-07T18:33:43.299Z,2.75
2022-10-07T18:36:13.112Z,2.10
2022-10-07T18:38:41.723Z,2.33
2022-10-07T18:41:11.236Z,3.13
2022-10-07T18:43:38.160Z,2.67
2022-10-07T18:46:11.060Z,2.65
2022-10-07T18:48:41.710Z,1.85
2022-10-07T18:51:10.494Z,2.38
2022-10-07T18:53:38.891Z,2.58
2022-10-07T18:56:08.198Z,2.63
2022-10-07T18:58:40.602Z,2.20
2022-10-07T19:01:08.240Z,2.25
2022-10-07T19:03:35.030Z,2.55
2022-10-07T19:06:10.488Z,2.20
2022-10-07T19:08:37.472Z,1.92
2022-10-07T19:11:09.428Z,2.15
2022-10-07T19:13:48.523Z,3.42
2022-10-07T19:16:23.754Z,2.95
2022-10-07T19:18:55.414Z,2.30
2022-10-07T19:21:23.613Z,2.00
2022-10-07T19:23:54.648Z,2.50
2022-10-07T19:26:24.393Z,2.63
2022-10-07T19:28:54.264Z,2.13
2022-10-07T19:31:27.378Z,2.22
2022-10-07T19:34:02.563Z,3.00
2022-10-07T19:36:31.687Z,3.00
2022-10-07T19:38:58.656Z,2.42
2022-10-07T19:41:29.628Z,2.50
2022-10-07T19:43:58.219Z,2.60
2022-10-07T19:46:27.101Z,2.55
2022-10-07T19:48:57.414Z,2.38
2022-10-07T19:51:25.792Z,2.75
2022-10-07T19:53:52.990Z,2.10
2022-10-07T19:56:20.879Z,1.98
2022-10-07T19:58:52.535Z,2.28
2022-10-07T20:01:27.697Z,2.58
2022-10-07T20:03:59.277Z,3.17
2022-10-07T20:06:26.760Z,2.60
2022-10-07T20:08:54.624Z,4.00
2022-10-07T20:11:21.332Z,2.58
2022-10-07T20:13:47.974Z,3.42
2022-10-07T20:16:18.780Z,2.97
2022-10-07T20:18:51.031Z,2.38
2022-10-07T20:21:22.148Z,2.45
2022-10-07T20:23:48.862Z,2.67
2022-10-07T20:26:19.010Z,2.38
2022-10-07T20:28:47.897Z,2.67
2022-10-07T20:31:15.993Z,2.72
2022-10-07T20:33:47.962Z,2.42
2022-10-07T20:36:17.137Z,2.38
2022-10-07T20:39:02.692Z,3.38
2022-10-07T20:41:48.742Z,1.98
2022-10-07T20:44:17.064Z,2.47
2022-10-07T20:46:44.444Z,2.35
2022-10-07T20:49:25.488Z,2.78
2022-10-07T20:51:54.376Z,2.05
2022-10-07T20:54:22.707Z,2.47
2022-10-07T20:56:51.598Z,2.28
2022-10-07T20:59:18.127Z,2.47
2022-10-07T21:01:44.926Z,2.80
2022-10-07T21:04:14.226Z,2.60
2022-10-07T21:06:42.206Z,4.00
2022-10-07T21:09:09.434Z,2.95
2022-10-07T21:11:36.475Z,2.65
2022-10-07T21:14:03.024Z,1.92
2022-10-07T21:16:31.328Z,2.38
2022-10-07T21:18:58.583Z,2.38
2022-10-07T21:21:25.629Z,3.13
2022-10-07T21:23:52.897Z,2.92
2022-10-07T21:26:20.306Z,2.53
2022-10-07T21:28:48.414Z,2.92
2022-10-07T21:31:17.738Z,2.78
2022-10-07T21:33:46.610Z,2.47
2022-10-07T21:36:18.486Z,2.42
2022-10-07T21:38:46.982Z,2.80
2022-10-07T21:41:21.982Z,2.88
2022-10-07T21:43:52.647Z,2.50
2022-10-07T21:46:20.734Z,2.50
2022-10-07T21:48:47.688Z,2.53
2022-10-07T21:51:14.728Z,3.13
2022-10-07T21:53:41.211Z,2.60
2022-10-07T21:56:11.362Z,1.88
2022-10-07T21:58:38.233Z,2.75
2022-10-07T22:01:12.729Z,2.55
2022-10-07T22:03:39.287Z,2.25
2022-10-07T22:06:11.098Z,2.35
2022-10-07T22:08:39.583Z,2.20
2022-10-07T22:11:13.369Z,3.00
2022-10-07T22:13:45.902Z,2.85
2022-10-07T22:16:15.584Z,2.95
2022-10-07T22:18:44.306Z,2.88
2022-10-07T22:21:23.420Z,2.83
2022-10-07T22:23:55.237Z,2.47
2022-10-07T22:26:24.769Z,3.00
2022-10-07T22:28:52.095Z,3.05
2022-10-07T22:31:19.478Z,2.85
2022-10-07T22:33:54.173Z,2.72
2022-10-07T22:36:22.038Z,2.20
2022-10-07T22:38:49.097Z,3.13
2022-10-07T22:41:17.841Z,2.53
2022-10-07T22:43:46.420Z,3.55
2022-10-07T22:46:18.105Z,3.05
2022-10-07T22:48:48.481Z,2.97
2022-10-07T22:51:16.308Z,2.65
2022-10-07T22:53:47.927Z,2.70
2022-10-07T22:56:17.539Z,2.40
2022-10-07T22:58:50.114Z,2.97
2022-10-07T23:01:17.354Z,2.92
2022-10-07T23:03:44.569Z,3.33
2022-10-07T23:06:13.402Z,3.25
2022-10-07T23:08:40.488Z,3.13
2022-10-07T23:11:08.026Z,3.03
2022-10-07T23:13:37.087Z,3.30
2022-10-07T23:16:07.541Z,3.50
2022-10-07T23:18:34.130Z,3.38
2022-10-07T23:21:02.656Z,3.83
2022-10-07T23:23:30.151Z,3.33
2022-10-07T23:25:57.018Z,3.03
2022-10-07T23:28:25.815Z,3.92
2022-10-07T23:30:53.105Z,3.10
2022-10-07T23:33:20.292Z,3.42
2022-10-07T23:35:46.847Z,3.45
2022-10-07T23:38:13.479Z,3.50
2022-10-07T23:40:40.778Z,3.42
2022-10-07T23:43:08.419Z,3.22
2022-10-07T23:45:34.970Z,3.88
2022-10-07T23:48:01.801Z,3.50
2022-10-07T23:50:28.499Z,3.53
2022-10-07T23:52:54.989Z,3.53
2022-10-07T23:55:21.565Z,3.65
2022-10-07T23:57:48.234Z,4.03
